sensor_id;sensor_type;location;lat;lon;timestamp;pressure;altitude;pressure_sealevel;temperature;humidity
71907;BME280;59781;52.090;5.030;2022-12-13T00:00:18;101239.63;;;-2.13;90.69
71907;BME280;59781;52.090;5.030;2022-12-13T00:02:45;101242.25;;;-2.13;90.24
71907;BME280;59781;52.090;5.030;2022-12-13T00:05:12;101235.75;;;-2.23;90.33
71907;BME280;59781;52.090;5.030;2022-12-13T00:07:38;101243.69;;;-2.40;90.39
71907;BME280;59781;52.090;5.030;2022-12-13T00:10:06;101231.22;;;-2.54;90.99
71907;BME280;59781;52.090;5.030;2022-12-13T00:12:32;101231.97;;;-2.52;90.71
71907;BME280;59781;52.090;5.030;2022-12-13T00:14:58;101240.81;;;-2.53;91.44
71907;BME280;59781;52.090;5.030;2022-12-13T00:17:24;101228.78;;;-2.41;90.88
71907;BME280;59781;52.090;5.030;2022-12-13T00:19:49;101224.28;;;-2.39;90.98
71907;BME280;59781;52.090;5.030;2022-12-13T00:22:17;101221.91;;;-2.44;90.78
71907;BME280;59781;52.090;5.030;2022-12-13T00:24:43;101219.34;;;-2.45;91.79
71907;BME280;59781;52.090;5.030;2022-12-13T00:27:11;101219.78;;;-2.37;91.28
71907;BME280;59781;52.090;5.030;2022-12-13T00:29:37;101217.94;;;-2.35;91.28
71907;BME280;59781;52.090;5.030;2022-12-13T00:32:03;101213.13;;;-2.44;90.56
71907;BME280;59781;52.090;5.030;2022-12-13T00:34:30;101218.31;;;-2.43;91.01
71907;BME280;59781;52.090;5.030;2022-12-13T00:37:16;101214.97;;;-2.46;90.53
71907;BME280;59781;52.090;5.030;2022-12-13T00:39:48;101212.97;;;-2.58;90.60
71907;BME280;59781;52.090;5.030;2022-12-13T00:42:13;101212.44;;;-2.82;90.20
71907;BME280;59781;52.090;5.030;2022-12-13T00:44:39;101214.50;;;-3.06;90.26
71907;BME280;59781;52.090;5.030;2022-12-13T00:47:05;101211.03;;;-3.26;91.13
71907;BME280;59781;52.090;5.030;2022-12-13T00:49:31;101212.38;;;-3.17;91.26
71907;BME280;59781;52.090;5.030;2022-12-13T00:51:57;101210.72;;;-3.37;91.32
71907;BME280;59781;52.090;5.030;2022-12-13T00:54:22;101213.84;;;-3.66;91.33
71907;BME280;59781;52.090;5.030;2022-12-13T00:56:48;101212.56;;;-3.58;92.05
71907;BME280;59781;52.090;5.030;2022-12-13T00:59:16;101204.69;;;-3.77;92.15
71907;BME280;59781;52.090;5.030;2022-12-13T01:01:42;101205.03;;;-3.84;92.61
71907;BME280;59781;52.090;5.030;2022-12-13T01:04:09;101211.97;;;-3.82;93.28
71907;BME280;59781;52.090;5.030;2022-12-13T01:06:40;101200.94;;;-3.71;93.35
71907;BME280;59781;52.090;5.030;2022-12-13T01:09:18;101201.84;;;-3.72;92.09
71907;BME280;59781;52.090;5.030;2022-12-13T01:11:46;101197.00;;;-3.43;91.62
71907;BME280;59781;52.090;5.030;2022-12-13T01:14:14;101194.53;;;-3.29;90.92
71907;BME280;59781;52.090;5.030;2022-12-13T01:16:41;101190.47;;;-3.54;90.91
71907;BME280;59781;52.090;5.030;2022-12-13T01:19:07;101190.06;;;-3.82;91.80
71907;BME280;59781;52.090;5.030;2022-12-13T01:21:33;101200.56;;;-3.82;91.83
71907;BME280;59781;52.090;5.030;2022-12-13T01:24:01;101192.97;;;-3.69;91.70
71907;BME280;59781;52.090;5.030;2022-12-13T01:26:29;101193.38;;;-3.79;91.08
71907;BME280;59781;52.090;5.030;2022-12-13T01:28:55;101194.81;;;-3.90;91.56
71907;BME280;59781;52.090;5.030;2022-12-13T01:31:21;101191.56;;;-4.16;91.81
71907;BME280;59781;52.090;5.030;2022-12-13T01:33:48;101200.34;;;-3.96;92.05
71907;BME280;59781;52.090;5.030;2022-12-13T01:36:20;101205.56;;;-4.15;91.98
71907;BME280;59781;52.090;5.030;2022-12-13T01:38:46;101207.63;;;-4.22;91.68
71907;BME280;59781;52.090;5.030;2022-12-13T01:41:18;101197.81;;;-4.18;91.89
71907;BME280;59781;52.090;5.030;2022-12-13T01:43:59;101206.78;;;-4.22;92.19
71907;BME280;59781;52.090;5.030;2022-12-13T01:46:33;101206.19;;;-4.29;92.41
71907;BME280;59781;52.090;5.030;2022-12-13T01:49:07;101208.03;;;-4.31;92.02
71907;BME280;59781;52.090;5.030;2022-12-13T01:51:41;101203.56;;;-4.29;91.78
71907;BME280;59781;52.090;5.030;2022-12-13T01:54:17;101203.13;;;-4.39;91.66
71907;BME280;59781;52.090;5.030;2022-12-13T01:56:51;101206.75;;;-4.41;92.02
71907;BME280;59781;52.090;5.030;2022-12-13T01:59:22;101207.53;;;-4.59;91.54
71907;BME280;59781;52.090;5.030;2022-12-13T02:01:50;101206.75;;;-4.41;91.57
71907;BME280;59781;52.090;5.030;2022-12-13T02:04:30;101204.16;;;-4.43;91.52
71907;BME280;59781;52.090;5.030;2022-12-13T02:07:16;101203.97;;;-4.58;91.89
71907;BME280;59781;52.090;5.030;2022-12-13T02:09:47;101205.75;;;-4.59;92.05
71907;BME280;59781;52.090;5.030;2022-12-13T02:12:15;101194.19;;;-4.55;92.53
71907;BME280;59781;52.090;5.030;2022-12-13T02:14:41;101195.03;;;-4.54;91.90
71907;BME280;59781;52.090;5.030;2022-12-13T02:17:19;101199.78;;;-4.23;92.21
71907;BME280;59781;52.090;5.030;2022-12-13T02:20:22;101192.34;;;-4.32;91.12
71907;BME280;59781;52.090;5.030;2022-12-13T02:29:02;101192.38;;;-3.95;91.15
71907;BME280;59781;52.090;5.030;2022-12-13T02:34:55;101194.38;;;-4.00;89.76
71907;BME280;59781;52.090;5.030;2022-12-13T02:37:39;101198.81;;;-4.21;90.64
71907;BME280;59781;52.090;5.030;2022-12-13T02:40:33;101188.94;;;-4.16;91.43
71907;BME280;59781;52.090;5.030;2022-12-13T02:45:45;101179.31;;;-4.36;90.57
71907;BME280;59781;52.090;5.030;2022-12-13T02:48:18;101177.16;;;-4.46;90.89
71907;BME280;59781;52.090;5.030;2022-12-13T02:50:51;101177.88;;;-4.63;91.14
71907;BME280;59781;52.090;5.030;2022-12-13T02:53:21;101183.09;;;-4.62;91.18
71907;BME280;59781;52.090;5.030;2022-12-13T02:55:48;101174.59;;;-4.48;91.32
71907;BME280;59781;52.090;5.030;2022-12-13T02:58:21;101184.59;;;-4.56;90.98
71907;BME280;59781;52.090;5.030;2022-12-13T03:04:05;101175.72;;;-4.53;91.24
71907;BME280;59781;52.090;5.030;2022-12-13T03:12:40;101179.19;;;-4.53;90.42
71907;BME280;59781;52.090;5.030;2022-12-13T03:18:18;101172.13;;;-4.71;90.70
71907;BME280;59781;52.090;5.030;2022-12-13T03:20:50;101168.50;;;-4.69;90.96
71907;BME280;59781;52.090;5.030;2022-12-13T03:23:20;101170.59;;;-4.77;90.46
71907;BME280;59781;52.090;5.030;2022-12-13T03:25:52;101179.72;;;-4.85;91.15
71907;BME280;59781;52.090;5.030;2022-12-13T03:28:21;101174.34;;;-4.82;90.93
71907;BME280;59781;52.090;5.030;2022-12-13T03:30:48;101181.19;;;-4.78;91.33
71907;BME280;59781;52.090;5.030;2022-12-13T03:33:14;101171.47;;;-4.76;91.14
71907;BME280;59781;52.090;5.030;2022-12-13T03:35:41;101172.25;;;-4.74;91.07
71907;BME280;59781;52.090;5.030;2022-12-13T03:38:09;101171.91;;;-4.67;91.05
71907;BME280;59781;52.090;5.030;2022-12-13T03:40:36;101165.75;;;-4.66;91.01
71907;BME280;59781;52.090;5.030;2022-12-13T03:43:02;101171.22;;;-4.70;90.73
71907;BME280;59781;52.090;5.030;2022-12-13T03:45:28;101167.91;;;-4.75;91.00
71907;BME280;59781;52.090;5.030;2022-12-13T03:47:55;101171.38;;;-4.75;90.92
71907;BME280;59781;52.090;5.030;2022-12-13T03:50:21;101169.63;;;-4.74;90.82
71907;BME280;59781;52.090;5.030;2022-12-13T03:52:47;101172.16;;;-4.52;90.31
71907;BME280;59781;52.090;5.030;2022-12-13T03:55:20;101170.13;;;-4.46;90.46
71907;BME280;59781;52.090;5.030;2022-12-13T03:57:45;101156.59;;;-4.18;90.72
71907;BME280;59781;52.090;5.030;2022-12-13T04:00:12;101164.09;;;-4.09;90.29
71907;BME280;59781;52.090;5.030;2022-12-13T04:02:41;101165.63;;;-3.86;90.37
71907;BME280;59781;52.090;5.030;2022-12-13T04:05:06;101158.47;;;-3.82;93.46
71907;BME280;59781;52.090;5.030;2022-12-13T04:07:32;101156.31;;;-3.74;93.95
71907;BME280;59781;52.090;5.030;2022-12-13T04:10:02;101158.00;;;-3.54;92.70
71907;BME280;59781;52.090;5.030;2022-12-13T04:12:28;101157.03;;;-3.70;91.60
71907;BME280;59781;52.090;5.030;2022-12-13T04:15:13;101154.91;;;-3.81;91.67
71907;BME280;59781;52.090;5.030;2022-12-13T04:17:39;101154.47;;;-3.53;93.03
71907;BME280;59781;52.090;5.030;2022-12-13T04:20:05;101159.34;;;-3.46;92.29
71907;BME280;59781;52.090;5.030;2022-12-13T04:22:31;101164.94;;;-3.34;91.44
71907;BME280;59781;52.090;5.030;2022-12-13T04:24:57;101163.00;;;-3.67;90.30
71907;BME280;59781;52.090;5.030;2022-12-13T04:27:23;101168.00;;;-3.98;90.54
71907;BME280;59781;52.090;5.030;2022-12-13T04:29:48;101161.44;;;-3.71;91.23
71907;BME280;59781;52.090;5.030;2022-12-13T04:32:14;101153.56;;;-3.71;91.56
71907;BME280;59781;52.090;5.030;2022-12-13T04:34:43;101157.03;;;-3.52;92.71
71907;BME280;59781;52.090;5.030;2022-12-13T04:37:09;101157.97;;;-3.35;94.07
71907;BME280;59781;52.090;5.030;2022-12-13T04:39:38;101143.50;;;-3.44;92.14
71907;BME280;59781;52.090;5.030;2022-12-13T04:42:03;101147.34;;;-3.51;92.89
71907;BME280;59781;52.090;5.030;2022-12-13T04:44:29;101138.75;;;-3.37;91.83
71907;BME280;59781;52.090;5.030;2022-12-13T04:46:56;101136.25;;;-3.04;91.12
71907;BME280;59781;52.090;5.030;2022-12-13T04:49:22;101141.38;;;-2.84;91.17
71907;BME280;59781;52.090;5.030;2022-12-13T04:51:48;101142.41;;;-3.40;92.02
71907;BME280;59781;52.090;5.030;2022-12-13T04:54:13;101144.06;;;-3.56;93.37
71907;BME280;59781;52.090;5.030;2022-12-13T04:56:39;101138.63;;;-3.17;92.26
71907;BME280;59781;52.090;5.030;2022-12-13T04:59:05;101136.94;;;-3.54;92.29
71907;BME280;59781;52.090;5.030;2022-12-13T05:01:31;101133.56;;;-3.39;92.59
71907;BME280;59781;52.090;5.030;2022-12-13T05:03:57;101126.25;;;-3.32;91.21
71907;BME280;59781;52.090;5.030;2022-12-13T05:06:22;101133.34;;;-3.34;91.06
71907;BME280;59781;52.090;5.030;2022-12-13T05:08:48;101127.59;;;-3.79;90.32
71907;BME280;59781;52.090;5.030;2022-12-13T05:11:14;101124.41;;;-3.85;91.22
71907;BME280;59781;52.090;5.030;2022-12-13T05:13:40;101129.09;;;-3.73;90.76
71907;BME280;59781;52.090;5.030;2022-12-13T05:16:07;101128.88;;;-3.87;91.01
71907;BME280;59781;52.090;5.030;2022-12-13T05:18:35;101116.47;;;-3.66;92.02
71907;BME280;59781;52.090;5.030;2022-12-13T05:21:07;101122.72;;;-3.50;91.89
71907;BME280;59781;52.090;5.030;2022-12-13T05:23:35;101116.94;;;-3.39;92.42
71907;BME280;59781;52.090;5.030;2022-12-13T05:26:02;101122.91;;;-3.19;91.66
71907;BME280;59781;52.090;5.030;2022-12-13T05:28:29;101125.16;;;-3.28;92.37
71907;BME280;59781;52.090;5.030;2022-12-13T05:30:58;101125.84;;;-3.42;91.39
71907;BME280;59781;52.090;5.030;2022-12-13T05:33:31;101118.47;;;-3.35;91.59
71907;BME280;59781;52.090;5.030;2022-12-13T05:35:58;101119.81;;;-3.09;92.07
71907;BME280;59781;52.090;5.030;2022-12-13T05:38:24;101124.78;;;-3.21;90.71
71907;BME280;59781;52.090;5.030;2022-12-13T05:40:50;101124.22;;;-3.27;91.46
71907;BME280;59781;52.090;5.030;2022-12-13T05:43:15;101127.84;;;-3.66;90.57
71907;BME280;59781;52.090;5.030;2022-12-13T05:45:41;101118.88;;;-3.26;92.14
71907;BME280;59781;52.090;5.030;2022-12-13T05:48:07;101120.25;;;-3.53;91.07
71907;BME280;59781;52.090;5.030;2022-12-13T05:50:35;101122.44;;;-3.44;93.07
71907;BME280;59781;52.090;5.030;2022-12-13T05:53:03;101115.78;;;-2.99;93.67
71907;BME280;59781;52.090;5.030;2022-12-13T05:55:29;101122.50;;;-2.76;93.29
71907;BME280;59781;52.090;5.030;2022-12-13T05:57:57;101114.38;;;-2.89;92.30
71907;BME280;59781;52.090;5.030;2022-12-13T06:00:25;101118.00;;;-3.26;94.41
71907;BME280;59781;52.090;5.030;2022-12-13T06:02:50;101130.31;;;-3.27;95.82
71907;BME280;59781;52.090;5.030;2022-12-13T06:05:16;101117.34;;;-3.12;96.11
71907;BME280;59781;52.090;5.030;2022-12-13T06:07:42;101118.50;;;-3.01;94.42
71907;BME280;59781;52.090;5.030;2022-12-13T06:10:09;101123.19;;;-3.25;95.02
71907;BME280;59781;52.090;5.030;2022-12-13T06:12:36;101116.16;;;-3.07;95.01
71907;BME280;59781;52.090;5.030;2022-12-13T06:15:04;101113.06;;;-2.98;93.78
71907;BME280;59781;52.090;5.030;2022-12-13T06:17:32;101104.38;;;-3.17;93.60
71907;BME280;59781;52.090;5.030;2022-12-13T06:20:03;101113.06;;;-3.32;94.12
71907;BME280;59781;52.090;5.030;2022-12-13T06:22:30;101108.50;;;-3.65;95.76
71907;BME280;59781;52.090;5.030;2022-12-13T06:24:59;101112.22;;;-3.69;97.06
71907;BME280;59781;52.090;5.030;2022-12-13T06:27:26;101113.59;;;-3.43;97.34
71907;BME280;59781;52.090;5.030;2022-12-13T06:29:52;101103.91;;;-3.25;95.44
71907;BME280;59781;52.090;5.030;2022-12-13T06:32:18;101107.03;;;-3.17;95.19
71907;BME280;59781;52.090;5.030;2022-12-13T06:34:44;101105.31;;;-3.18;93.22
71907;BME280;59781;52.090;5.030;2022-12-13T06:37:12;101117.09;;;-3.25;94.76
71907;BME280;59781;52.090;5.030;2022-12-13T06:39:41;101120.78;;;-3.47;93.60
71907;BME280;59781;52.090;5.030;2022-12-13T06:42:15;101119.72;;;-3.25;92.89
71907;BME280;59781;52.090;5.030;2022-12-13T06:44:42;101116.53;;;-3.49;92.91
71907;BME280;59781;52.090;5.030;2022-12-13T06:47:09;101122.47;;;-3.63;92.67
71907;BME280;59781;52.090;5.030;2022-12-13T06:49:36;101118.88;;;-3.26;92.28
71907;BME280;59781;52.090;5.030;2022-12-13T06:52:03;101112.50;;;-3.39;92.32
71907;BME280;59781;52.090;5.030;2022-12-13T06:54:29;101118.22;;;-3.48;91.82
71907;BME280;59781;52.090;5.030;2022-12-13T06:56:55;101124.19;;;-3.44;91.83
71907;BME280;59781;52.090;5.030;2022-12-13T06:59:21;101124.03;;;-3.78;90.76
71907;BME280;59781;52.090;5.030;2022-12-13T07:01:47;101126.75;;;-4.17;92.03
71907;BME280;59781;52.090;5.030;2022-12-13T07:04:12;101127.91;;;-4.43;92.30
71907;BME280;59781;52.090;5.030;2022-12-13T07:06:38;101133.50;;;-4.69;92.33
71907;BME280;59781;52.090;5.030;2022-12-13T07:09:04;101139.53;;;-4.67;92.42
71907;BME280;59781;52.090;5.030;2022-12-13T07:11:31;101129.50;;;-4.78;92.68
71907;BME280;59781;52.090;5.030;2022-12-13T07:13:58;101135.06;;;-4.85;92.60
71907;BME280;59781;52.090;5.030;2022-12-13T07:16:26;101134.03;;;-4.81;92.39
71907;BME280;59781;52.090;5.030;2022-12-13T07:18:54;101130.88;;;-4.89;92.16
71907;BME280;59781;52.090;5.030;2022-12-13T07:21:21;101134.91;;;-5.01;92.26
71907;BME280;59781;52.090;5.030;2022-12-13T07:23:47;101133.38;;;-5.07;92.61
71907;BME280;59781;52.090;5.030;2022-12-13T07:26:15;101133.38;;;-5.07;92.70
71907;BME280;59781;52.090;5.030;2022-12-13T07:28:41;101134.47;;;-5.12;92.28
71907;BME280;59781;52.090;5.030;2022-12-13T07:31:09;101142.41;;;-5.14;92.02
71907;BME280;59781;52.090;5.030;2022-12-13T07:33:36;101145.03;;;-5.14;91.89
71907;BME280;59781;52.090;5.030;2022-12-13T07:38:34;101146.75;;;-5.13;91.89
71907;BME280;59781;52.090;5.030;2022-12-13T07:41:05;101152.81;;;-5.11;92.07
71907;BME280;59781;52.090;5.030;2022-12-13T07:43:32;101145.41;;;-5.01;91.87
71907;BME280;59781;52.090;5.030;2022-12-13T07:46:00;101151.69;;;-4.85;91.47
71907;BME280;59781;52.090;5.030;2022-12-13T07:48:26;101155.22;;;-4.86;91.00
71907;BME280;59781;52.090;5.030;2022-12-13T07:50:58;101159.63;;;-4.86;91.49
71907;BME280;59781;52.090;5.030;2022-12-13T07:53:26;101151.38;;;-4.98;91.07
71907;BME280;59781;52.090;5.030;2022-12-13T07:55:51;101155.28;;;-5.08;91.77
71907;BME280;59781;52.090;5.030;2022-12-13T07:58:17;101159.56;;;-5.05;91.50
71907;BME280;59781;52.090;5.030;2022-12-13T08:00:44;101161.47;;;-5.09;91.62
71907;BME280;59781;52.090;5.030;2022-12-13T08:03:11;101158.78;;;-5.07;91.31
71907;BME280;59781;52.090;5.030;2022-12-13T08:05:38;101162.59;;;-4.94;91.73
71907;BME280;59781;52.090;5.030;2022-12-13T08:08:06;101158.63;;;-4.84;91.10
71907;BME280;59781;52.090;5.030;2022-12-13T08:10:34;101158.84;;;-4.68;91.59
71907;BME280;59781;52.090;5.030;2022-12-13T08:13:03;101165.56;;;-4.81;90.63
71907;BME280;59781;52.090;5.030;2022-12-13T08:15:32;101162.25;;;-4.66;90.66
71907;BME280;59781;52.090;5.030;2022-12-13T08:17:58;101155.56;;;-4.73;89.88
71907;BME280;59781;52.090;5.030;2022-12-13T08:20:28;101161.19;;;-4.82;90.28
71907;BME280;59781;52.090;5.030;2022-12-13T08:22:55;101150.81;;;-4.65;90.94
71907;BME280;59781;52.090;5.030;2022-12-13T08:25:23;101161.97;;;-4.40;90.53
71907;BME280;59781;52.090;5.030;2022-12-13T08:27:49;101156.34;;;-4.51;90.62
71907;BME280;59781;52.090;5.030;2022-12-13T08:30:16;101157.38;;;-4.16;91.12
71907;BME280;59781;52.090;5.030;2022-12-13T08:32:42;101154.94;;;-3.64;90.29
71907;BME280;59781;52.090;5.030;2022-12-13T08:35:08;101154.91;;;-3.62;89.75
71907;BME280;59781;52.090;5.030;2022-12-13T08:37:34;101155.88;;;-3.84;88.88
71907;BME280;59781;52.090;5.030;2022-12-13T08:40:00;101160.09;;;-3.80;89.31
71907;BME280;59781;52.090;5.030;2022-12-13T08:42:26;101171.25;;;-3.93;89.49
71907;BME280;59781;52.090;5.030;2022-12-13T08:44:52;101170.41;;;-3.94;90.37
71907;BME280;59781;52.090;5.030;2022-12-13T08:47:20;101177.22;;;-3.16;89.96
71907;BME280;59781;52.090;5.030;2022-12-13T08:49:48;101171.63;;;-2.58;88.70
71907;BME280;59781;52.090;5.030;2022-12-13T08:52:14;101164.06;;;-2.64;88.05
71907;BME280;59781;52.090;5.030;2022-12-13T08:54:40;101167.28;;;-2.42;87.04
71907;BME280;59781;52.090;5.030;2022-12-13T08:57:08;101159.09;;;-2.20;86.31
71907;BME280;59781;52.090;5.030;2022-12-13T08:59:34;101169.78;;;-2.56;88.93
71907;BME280;59781;52.090;5.030;2022-12-13T09:02:00;101172.94;;;-2.49;90.14
71907;BME280;59781;52.090;5.030;2022-12-13T09:04:26;101174.19;;;-2.39;91.07
71907;BME280;59781;52.090;5.030;2022-12-13T09:06:52;101171.41;;;-2.20;91.45
71907;BME280;59781;52.090;5.030;2022-12-13T09:09:18;101166.97;;;-2.03;89.69
71907;BME280;59781;52.090;5.030;2022-12-13T09:11:44;101180.56;;;-2.43;91.45
71907;BME280;59781;52.090;5.030;2022-12-13T09:14:10;101165.59;;;-2.27;91.44
71907;BME280;59781;52.090;5.030;2022-12-13T09:16:39;101164.75;;;-2.27;91.22
71907;BME280;59781;52.090;5.030;2022-12-13T09:19:07;101160.13;;;-2.07;90.60
71907;BME280;59781;52.090;5.030;2022-12-13T09:21:33;101167.13;;;-1.90;90.88
71907;BME280;59781;52.090;5.030;2022-12-13T09:24:00;101167.00;;;-1.55;89.97
71907;BME280;59781;52.090;5.030;2022-12-13T09:26:26;101170.84;;;-2.10;90.93
71907;BME280;59781;52.090;5.030;2022-12-13T09:28:51;101172.84;;;-1.50;90.97
71907;BME280;59781;52.090;5.030;2022-12-13T09:31:18;101168.25;;;-1.78;90.15
71907;BME280;59781;52.090;5.030;2022-12-13T09:33:45;101173.53;;;-1.94;90.98
71907;BME280;59781;52.090;5.030;2022-12-13T09:36:14;101171.06;;;-1.50;90.40
71907;BME280;59781;52.090;5.030;2022-12-13T09:38:43;101164.78;;;-1.63;90.67
71907;BME280;59781;52.090;5.030;2022-12-13T09:44:23;101160.81;;;-1.87;92.21
71907;BME280;59781;52.090;5.030;2022-12-13T09:46:54;101157.28;;;-1.55;91.47
71907;BME280;59781;52.090;5.030;2022-12-13T09:49:38;101145.25;;;-1.92;93.01
71907;BME280;59781;52.090;5.030;2022-12-13T09:52:13;101149.22;;;-1.22;89.52
71907;BME280;59781;52.090;5.030;2022-12-13T09:54:43;101147.38;;;-1.51;90.06
71907;BME280;59781;52.090;5.030;2022-12-13T09:57:19;101131.53;;;-1.05;89.78
71907;BME280;59781;52.090;5.030;2022-12-13T09:59:49;101134.19;;;-1.05;88.20
71907;BME280;59781;52.090;5.030;2022-12-13T10:02:29;101153.50;;;-1.35;89.35
71907;BME280;59781;52.090;5.030;2022-12-13T10:05:25;101143.00;;;-1.21;89.67
71907;BME280;59781;52.090;5.030;2022-12-13T10:07:58;101138.88;;;-1.56;89.63
71907;BME280;59781;52.090;5.030;2022-12-13T10:10:28;101141.75;;;-1.92;92.62
71907;BME280;59781;52.090;5.030;2022-12-13T10:13:19;101128.19;;;-1.09;89.90
71907;BME280;59781;52.090;5.030;2022-12-13T10:16:15;101124.16;;;-1.30;89.54
71907;BME280;59781;52.090;5.030;2022-12-13T10:18:50;101122.25;;;-1.90;90.85
71907;BME280;59781;52.090;5.030;2022-12-13T10:24:18;101113.47;;;-1.43;90.75
71907;BME280;59781;52.090;5.030;2022-12-13T10:26:52;101112.31;;;-1.23;89.77
71907;BME280;59781;52.090;5.030;2022-12-13T10:29:21;101112.94;;;-1.04;88.52
71907;BME280;59781;52.090;5.030;2022-12-13T10:31:52;101121.53;;;-1.30;89.69
71907;BME280;59781;52.090;5.030;2022-12-13T10:34:24;101122.84;;;-1.53;90.81
71907;BME280;59781;52.090;5.030;2022-12-13T10:36:53;101122.84;;;-1.53;91.08
71907;BME280;59781;52.090;5.030;2022-12-13T10:39:55;101118.75;;;-1.43;91.48
71907;BME280;59781;52.090;5.030;2022-12-13T10:42:22;101106.72;;;-1.49;91.31
71907;BME280;59781;52.090;5.030;2022-12-13T10:44:48;101108.44;;;-1.48;92.33
71907;BME280;59781;52.090;5.030;2022-12-13T10:47:19;101103.34;;;-1.51;91.26
71907;BME280;59781;52.090;5.030;2022-12-13T10:49:57;101092.91;;;-0.78;89.75
71907;BME280;59781;52.090;5.030;2022-12-13T10:55:03;101085.63;;;-0.46;87.66
71907;BME280;59781;52.090;5.030;2022-12-13T10:57:36;101090.81;;;-0.73;87.97
71907;BME280;59781;52.090;5.030;2022-12-13T11:00:32;101094.19;;;-0.85;89.39
71907;BME280;59781;52.090;5.030;2022-12-13T11:03:05;101075.41;;;-0.80;88.16
71907;BME280;59781;52.090;5.030;2022-12-13T11:05:34;101079.75;;;-0.08;85.67
71907;BME280;59781;52.090;5.030;2022-12-13T11:08:31;101086.94;;;-0.53;86.85
71907;BME280;59781;52.090;5.030;2022-12-13T11:11:03;101076.44;;;-0.40;84.84
71907;BME280;59781;52.090;5.030;2022-12-13T11:17:49;101076.56;;;-0.56;85.80
71907;BME280;59781;52.090;5.030;2022-12-13T11:21:37;101080.97;;;-0.71;85.01
71907;BME280;59781;52.090;5.030;2022-12-13T11:24:58;101086.78;;;-0.36;84.99
71907;BME280;59781;52.090;5.030;2022-12-13T11:40:55;101057.78;;;-0.10;82.66
71907;BME280;59781;52.090;5.030;2022-12-13T11:43:36;101045.91;;;0.24;82.20
71907;BME280;59781;52.090;5.030;2022-12-13T11:46:21;101046.25;;;0.32;79.84
71907;BME280;59781;52.090;5.030;2022-12-13T11:49:05;101030.22;;;-0.20;82.75
71907;BME280;59781;52.090;5.030;2022-12-13T11:51:58;101036.19;;;-0.17;82.43
71907;BME280;59781;52.090;5.030;2022-12-13T11:54:58;101029.13;;;0.11;81.86
71907;BME280;59781;52.090;5.030;2022-12-13T12:00:33;101032.16;;;0.32;82.33
71907;BME280;59781;52.090;5.030;2022-12-13T12:03:45;101034.81;;;0.05;81.69
71907;BME280;59781;52.090;5.030;2022-12-13T12:06:26;101049.59;;;-0.20;80.49
71907;BME280;59781;52.090;5.030;2022-12-13T12:09:06;101030.41;;;-0.23;83.92
71907;BME280;59781;52.090;5.030;2022-12-13T12:15:16;101040.59;;;-0.59;83.38
71907;BME280;59781;52.090;5.030;2022-12-13T12:17:47;101042.72;;;-0.37;82.43
71907;BME280;59781;52.090;5.030;2022-12-13T12:20:18;101037.13;;;-0.18;82.25
71907;BME280;59781;52.090;5.030;2022-12-13T12:23:53;101022.91;;;-0.58;84.70
71907;BME280;59781;52.090;5.030;2022-12-13T12:32:57;101028.94;;;-0.27;82.14
71907;BME280;59781;52.090;5.030;2022-12-13T12:35:57;101027.25;;;0.25;81.78
71907;BME280;59781;52.090;5.030;2022-12-13T12:50:38;101014.13;;;0.24;80.47
71907;BME280;59781;52.090;5.030;2022-12-13T12:53:27;101011.09;;;-0.38;81.06
71907;BME280;59781;52.090;5.030;2022-12-13T12:59:31;100998.66;;;-0.09;81.70
71907;BME280;59781;52.090;5.030;2022-12-13T13:01:30;101000.34;;;-0.22;82.28
71907;BME280;59781;52.090;5.030;2022-12-13T13:04:51;100993.50;;;0.02;79.24
71907;BME280;59781;52.090;5.030;2022-12-13T13:07:52;101003.94;;;-0.23;80.95
71907;BME280;59781;52.090;5.030;2022-12-13T13:10:56;101009.88;;;-0.61;81.80
71907;BME280;59781;52.090;5.030;2022-12-13T13:16:38;101007.50;;;-0.37;80.11
71907;BME280;59781;52.090;5.030;2022-12-13T13:21:58;100997.69;;;-0.08;80.46
71907;BME280;59781;52.090;5.030;2022-12-13T13:24:27;100997.19;;;-0.42;80.61
71907;BME280;59781;52.090;5.030;2022-12-13T13:27:41;100989.91;;;-0.38;81.53
71907;BME280;59781;52.090;5.030;2022-12-13T13:31:19;100983.16;;;-0.30;81.23
71907;BME280;59781;52.090;5.030;2022-12-13T13:38:46;100977.69;;;-0.68;82.49
71907;BME280;59781;52.090;5.030;2022-12-13T13:54:35;100960.53;;;-0.07;80.28
71907;BME280;59781;52.090;5.030;2022-12-13T14:09:47;100967.94;;;-0.67;81.69
71907;BME280;59781;52.090;5.030;2022-12-13T14:22:57;100948.69;;;-0.83;82.63
71907;BME280;59781;52.090;5.030;2022-12-13T14:28:48;100955.09;;;-1.02;85.28
71907;BME280;59781;52.090;5.030;2022-12-13T14:31:49;100945.28;;;-1.00;84.58
71907;BME280;59781;52.090;5.030;2022-12-13T14:35:31;100942.50;;;-0.55;83.67
71907;BME280;59781;52.090;5.030;2022-12-13T14:39:33;100939.63;;;-0.94;83.20
71907;BME280;59781;52.090;5.030;2022-12-13T14:43:03;100935.91;;;-0.63;84.40
71907;BME280;59781;52.090;5.030;2022-12-13T14:47:04;100938.44;;;-0.61;83.71
71907;BME280;59781;52.090;5.030;2022-12-13T14:49:59;100935.16;;;-0.79;84.47
71907;BME280;59781;52.090;5.030;2022-12-13T14:52:55;100933.72;;;-0.56;82.81
71907;BME280;59781;52.090;5.030;2022-12-13T14:55:35;100932.63;;;-0.66;82.06
71907;BME280;59781;52.090;5.030;2022-12-13T14:58:21;100924.16;;;-0.85;83.73
71907;BME280;59781;52.090;5.030;2022-12-13T15:02:03;100920.09;;;-1.20;84.69
71907;BME280;59781;52.090;5.030;2022-12-13T15:05:00;100915.19;;;-1.11;84.58
71907;BME280;59781;52.090;5.030;2022-12-13T15:08:38;100905.16;;;-0.92;83.47
71907;BME280;59781;52.090;5.030;2022-12-13T15:11:34;100903.56;;;-1.09;83.89
71907;BME280;59781;52.090;5.030;2022-12-13T15:14:22;100906.38;;;-0.83;82.80
71907;BME280;59781;52.090;5.030;2022-12-13T15:16:55;100910.81;;;-1.41;84.15
71907;BME280;59781;52.090;5.030;2022-12-13T15:19:33;100905.09;;;-1.05;84.22
71907;BME280;59781;52.090;5.030;2022-12-13T15:22:59;100901.69;;;-1.07;84.25
71907;BME280;59781;52.090;5.030;2022-12-13T15:26:44;100909.78;;;-1.53;84.81
71907;BME280;59781;52.090;5.030;2022-12-13T15:30:45;100897.84;;;-1.16;83.49
71907;BME280;59781;52.090;5.030;2022-12-13T15:36:59;100889.59;;;-1.39;84.55
71907;BME280;59781;52.090;5.030;2022-12-13T15:39:51;100892.53;;;-1.30;84.83
71907;BME280;59781;52.090;5.030;2022-12-13T15:42:31;100898.50;;;-1.26;85.01